createdAt,value
2023-03-06T00:00:14.811Z,3.04
2023-03-06T00:03:26.276Z,3.04
2023-03-06T00:06:33.913Z,3.00
2023-03-06T00:09:42.204Z,3.01
2023-03-06T00:12:50.567Z,2.96
2023-03-06T00:16:00.972Z,2.92
2023-03-06T00:19:07.772Z,2.93
2023-03-06T00:22:21.070Z,2.95
2023-03-06T00:25:27.724Z,2.94
2023-03-06T00:28:40.724Z,2.90
2023-03-06T00:31:50.815Z,2.94
2023-03-06T00:35:04.663Z,2.96
2023-03-06T00:38:15.601Z,2.93
2023-03-06T00:41:25.074Z,2.94
2023-03-06T00:44:35.619Z,2.97
2023-03-06T00:47:45.634Z,2.97
2023-03-06T00:50:52.029Z,2.99
2023-03-06T00:53:59.056Z,2.98
2023-03-06T00:57:05.254Z,3.01
2023-03-06T01:00:14.613Z,3.00
2023-03-06T01:03:24.061Z,3.02
2023-03-06T01:06:35.669Z,3.02
2023-03-06T01:09:44.789Z,3.00
2023-03-06T01:12:56.770Z,2.98
2023-03-06T01:16:12.058Z,3.05
2023-03-06T01:19:27.263Z,3.05
2023-03-06T01:22:35.157Z,3.04
2023-03-06T01:25:43.324Z,3.05
2023-03-06T01:28:50.130Z,3.02
2023-03-06T01:32:03.595Z,3.02
2023-03-06T01:35:10.767Z,3.00
2023-03-06T01:38:21.644Z,3.09
2023-03-06T01:41:33.633Z,3.08
2023-03-06T01:45:00.019Z,3.09
2023-03-06T01:48:06.873Z,3.12
2023-03-06T01:51:13.735Z,3.13
2023-03-06T01:54:27.078Z,3.13
2023-03-06T01:57:37.804Z,3.16
2023-03-06T02:00:45.851Z,3.18
2023-03-06T02:03:55.275Z,3.21
2023-03-06T02:07:05.983Z,3.27
2023-03-06T02:10:14.632Z,3.26
2023-03-06T02:13:22.236Z,3.26
2023-03-06T02:16:34.210Z,3.25
2023-03-06T02:19:42.778Z,3.19
2023-03-06T02:22:59.753Z,3.19
2023-03-06T02:26:09.247Z,3.19
2023-03-06T02:29:19.409Z,3.17
2023-03-06T02:32:31.074Z,3.18
2023-03-06T02:35:45.604Z,3.19
2023-03-06T02:38:53.970Z,3.20
2023-03-06T02:42:02.436Z,3.21
2023-03-06T02:45:11.530Z,3.25
2023-03-06T02:48:21.460Z,3.26
2023-03-06T02:51:30.919Z,3.21
2023-03-06T02:54:39.908Z,3.25
2023-03-06T02:57:47.731Z,3.22
2023-03-06T03:00:57.260Z,3.21
2023-03-06T03:04:07.853Z,3.23
2023-03-06T03:07:19.041Z,3.21
2023-03-06T03:10:31.285Z,3.21
2023-03-06T03:13:40.908Z,3.20
2023-03-06T03:16:48.387Z,3.21
2023-03-06T03:19:57.833Z,3.19
2023-03-06T03:23:07.829Z,3.21
2023-03-06T03:26:21.539Z,3.19
2023-03-06T03:29:31.225Z,3.17
2023-03-06T03:32:42.188Z,3.16
2023-03-06T03:35:56.945Z,3.17
2023-03-06T03:39:11.186Z,3.14
2023-03-06T03:42:16.936Z,3.16
2023-03-06T03:45:26.069Z,3.20
2023-03-06T03:48:36.805Z,3.19
2023-03-06T03:51:47.833Z,3.19
2023-03-06T03:55:02.182Z,3.27
2023-03-06T03:58:09.811Z,3.20
2023-03-06T04:01:17.840Z,3.26
2023-03-06T04:04:27.478Z,3.30
2023-03-06T04:07:36.686Z,3.27
2023-03-06T04:10:49.128Z,3.24
2023-03-06T04:13:57.234Z,3.24
2023-03-06T04:17:09.107Z,3.33
2023-03-06T04:20:17.850Z,3.23
2023-03-06T04:23:30.693Z,3.23
2023-03-06T04:26:37.585Z,3.23
2023-03-06T04:29:44.984Z,3.32
2023-03-06T04:32:50.320Z,3.21
2023-03-06T04:35:58.650Z,3.21
2023-03-06T04:39:07.869Z,3.23
2023-03-06T04:42:16.552Z,3.24
2023-03-06T04:45:22.799Z,3.25
2023-03-06T04:48:32.293Z,3.26
2023-03-06T04:51:40.390Z,3.27
2023-03-06T04:54:47.601Z,3.20
2023-03-06T04:57:57.234Z,3.21
2023-03-06T05:01:05.299Z,3.19
2023-03-06T05:04:12.591Z,3.06
2023-03-06T05:07:19.873Z,3.08
2023-03-06T05:10:28.619Z,3.06
2023-03-06T05:13:36.275Z,3.05
2023-03-06T05:16:43.514Z,3.02
2023-03-06T05:19:56.322Z,3.08
2023-03-06T05:23:06.297Z,2.93
2023-03-06T05:26:17.636Z,2.92
2023-03-06T05:29:25.948Z,2.89
2023-03-06T05:32:35.826Z,2.90
2023-03-06T05:35:48.187Z,2.92
2023-03-06T05:38:57.707Z,2.92
2023-03-06T05:42:04.242Z,2.87
2023-03-06T05:45:10.009Z,2.83
2023-03-06T05:48:15.344Z,2.96
2023-03-06T05:51:21.918Z,2.90
2023-03-06T05:54:27.881Z,2.88
2023-03-06T05:57:38.083Z,2.76
2023-03-06T06:00:43.719Z,2.74
2023-03-06T06:03:48.827Z,2.78
2023-03-06T06:06:56.212Z,2.71
2023-03-06T06:10:01.760Z,2.45
2023-03-06T06:13:06.366Z,2.47
2023-03-06T06:16:16.998Z,2.55
2023-03-06T06:19:21.377Z,2.53
2023-03-06T06:22:26.031Z,2.53
2023-03-06T06:25:30.222Z,2.47
2023-03-06T06:28:36.800Z,2.49
2023-03-06T06:31:41.761Z,2.47
2023-03-06T06:34:47.031Z,2.48
2023-03-06T06:37:52.195Z,2.65
2023-03-06T06:41:30.731Z,2.65
2023-03-06T06:44:22.557Z,2.51
2023-03-06T06:47:26.666Z,2.30
2023-03-06T06:50:30.243Z,2.41
2023-03-06T06:53:34.724Z,2.48
2023-03-06T06:56:40.187Z,2.70
2023-03-06T06:59:46.558Z,2.81
2023-03-06T07:02:51.829Z,2.77
2023-03-06T07:05:56.558Z,2.61
2023-03-06T07:08:59.996Z,2.85
2023-03-06T07:12:08.191Z,3.09
2023-03-06T07:15:13.035Z,3.15
2023-03-06T07:18:16.568Z,3.23
2023-03-06T07:21:20.025Z,3.34
2023-03-06T07:24:25.329Z,3.40
2023-03-06T07:27:29.056Z,3.35
2023-03-06T07:30:33.481Z,3.32
2023-03-06T07:33:37.911Z,3.46
2023-03-06T07:36:42.511Z,3.45
2023-03-06T07:39:46.617Z,3.48
2023-03-06T07:42:53.457Z,3.51
2023-03-06T07:46:00.441Z,3.63
2023-03-06T07:49:05.454Z,3.56
2023-03-06T07:52:13.297Z,3.45
2023-03-06T07:55:17.999Z,3.61
2023-03-06T07:58:21.467Z,3.59
2023-03-06T08:01:27.539Z,3.58
2023-03-06T08:04:31.949Z,3.54
2023-03-06T08:07:37.983Z,3.48
2023-03-06T08:10:47.515Z,3.30
2023-03-06T08:13:53.970Z,3.30
2023-03-06T08:16:58.658Z,3.36
2023-03-06T08:20:06.174Z,3.33
2023-03-06T08:23:12.502Z,3.36
2023-03-06T08:26:18.181Z,3.34
2023-03-06T08:29:22.356Z,3.31
2023-03-06T08:32:29.217Z,3.65
2023-03-06T08:35:33.311Z,3.58
2023-03-06T08:38:36.661Z,3.98
2023-03-06T08:41:40.883Z,4.35
2023-03-06T08:44:44.389Z,4.39
2023-03-06T08:47:48.384Z,4.49
2023-03-06T08:50:53.033Z,4.36
2023-03-06T08:53:58.242Z,4.07
2023-03-06T08:57:02.957Z,4.08
2023-03-06T09:00:09.227Z,4.68
2023-03-06T09:03:13.164Z,5.26
2023-03-06T09:06:18.296Z,5.38
2023-03-06T09:09:22.641Z,5.06
2023-03-06T09:12:29.284Z,4.34
2023-03-06T09:15:34.736Z,5.07
2023-03-06T09:18:38.628Z,4.61
2023-03-06T09:21:42.541Z,5.05
2023-03-06T09:24:48.240Z,5.73
2023-03-06T09:28:10.116Z,5.46
2023-03-06T09:31:15.996Z,5.71
2023-03-06T09:34:21.263Z,5.74
2023-03-06T09:37:26.944Z,6.38
2023-03-06T09:40:42.902Z,5.95
2023-03-06T09:43:49.071Z,6.21
2023-03-06T09:47:08.293Z,5.61
2023-03-06T09:50:20.544Z,5.63
2023-03-06T09:53:24.550Z,6.25
2023-03-06T09:56:32.535Z,6.49
2023-03-06T09:59:37.625Z,5.84
2023-03-06T10:02:45.975Z,5.57
2023-03-06T10:06:17.012Z,6.27
2023-03-06T10:09:24.865Z,6.32
2023-03-06T10:12:33.324Z,5.76
2023-03-06T10:15:42.097Z,6.03
2023-03-06T10:18:48.268Z,6.04
2023-03-06T10:22:18.698Z,6.21
2023-03-06T10:25:22.987Z,5.90
2023-03-06T10:28:35.377Z,5.55
2023-03-06T10:31:41.597Z,5.48
2023-03-06T10:34:46.382Z,5.80
2023-03-06T10:37:50.014Z,5.79
2023-03-06T10:41:04.833Z,5.14
2023-03-06T10:44:10.205Z,5.08
2023-03-06T10:47:41.280Z,5.02
2023-03-06T10:50:47.148Z,4.92
2023-03-06T10:53:53.206Z,4.70
2023-03-06T10:56:58.550Z,4.99
2023-03-06T11:00:06.147Z,4.77
2023-03-06T11:03:17.778Z,4.72
2023-03-06T11:06:33.957Z,5.05
2023-03-06T11:09:44.002Z,5.29
2023-03-06T11:13:07.181Z,5.37
2023-03-06T11:16:25.631Z,5.82
2023-03-06T11:19:29.845Z,5.85
2023-03-06T11:22:36.246Z,5.90
2023-03-06T11:25:50.116Z,5.81
2023-03-06T11:29:02.380Z,6.03
2023-03-06T11:32:12.735Z,5.82
2023-03-06T11:35:29.802Z,5.78
2023-03-06T11:38:39.887Z,5.71
2023-03-06T11:42:07.736Z,5.90
2023-03-06T11:45:25.709Z,5.92
2023-03-06T11:48:43.521Z,5.85
2023-03-06T11:51:55.809Z,5.74
2023-03-06T11:55:02.089Z,5.38
2023-03-06T11:58:18.248Z,5.51
2023-03-06T12:01:23.023Z,5.52
2023-03-06T12:04:30.409Z,5.48
2023-03-06T12:07:34.709Z,5.30
2023-03-06T12:10:51.465Z,5.22
2023-03-06T12:14:04.005Z,5.65
2023-03-06T12:17:08.190Z,5.90
2023-03-06T12:20:28.199Z,5.88
2023-03-06T12:23:32.524Z,6.08
2023-03-06T12:26:54.441Z,6.45
2023-03-06T12:30:04.646Z,5.91
2023-03-06T12:33:22.131Z,5.66
2023-03-06T12:36:38.394Z,5.77
2023-03-06T12:39:57.321Z,6.14
2023-03-06T12:43:04.261Z,6.15
2023-03-06T12:46:16.257Z,5.69
2023-03-06T12:49:32.279Z,5.67
2023-03-06T12:52:37.022Z,6.01
2023-03-06T12:55:49.742Z,6.24
2023-03-06T12:58:53.879Z,5.86
2023-03-06T13:02:05.330Z,6.01
2023-03-06T13:05:28.007Z,5.97
2023-03-06T13:08:56.529Z,5.85
2023-03-06T13:12:10.629Z,5.61
2023-03-06T13:15:32.471Z,5.77
2023-03-06T13:18:36.382Z,5.64
2023-03-06T13:21:56.558Z,5.54
2023-03-06T13:25:18.621Z,5.32
2023-03-06T13:28:23.986Z,5.59
2023-03-06T13:31:34.458Z,5.70
2023-03-06T13:34:39.614Z,5.57
2023-03-06T13:37:49.973Z,5.57
2023-03-06T13:41:15.522Z,5.67
2023-03-06T13:44:25.777Z,5.68
2023-03-06T13:48:22.590Z,5.91
2023-03-06T13:51:25.640Z,6.30
2023-03-06T13:54:37.383Z,5.82
2023-03-06T13:58:08.893Z,6.14
2023-03-06T14:01:15.226Z,5.99
2023-03-06T14:04:39.827Z,6.09
2023-03-06T14:07:46.340Z,6.21
2023-03-06T14:11:03.224Z,6.21
2023-03-06T14:14:12.973Z,6.38
2023-03-06T14:17:26.106Z,6.32
2023-03-06T14:20:36.649Z,6.16
2023-03-06T14:23:47.343Z,6.19
2023-03-06T14:26:53.238Z,5.89
2023-03-06T14:30:09.095Z,5.90
2023-03-06T14:33:14.066Z,5.82
2023-03-06T14:36:21.837Z,5.71
2023-03-06T14:39:44.090Z,5.52
2023-03-06T14:42:48.537Z,5.59
2023-03-06T14:45:54.776Z,5.14
2023-03-06T14:48:59.140Z,5.27
2023-03-06T14:52:04.432Z,5.18
2023-03-06T14:55:16.647Z,5.34
2023-03-06T14:58:27.743Z,5.27
2023-03-06T15:01:35.117Z,5.32
2023-03-06T15:04:43.059Z,5.20
2023-03-06T15:07:47.106Z,5.30
2023-03-06T15:11:02.973Z,5.30
2023-03-06T15:14:19.008Z,5.41
2023-03-06T15:17:26.918Z,5.15
2023-03-06T15:20:55.892Z,5.33
2023-03-06T15:24:00.607Z,5.41
2023-03-06T15:27:18.844Z,5.37
2023-03-06T15:30:31.945Z,5.17
2023-03-06T15:33:37.716Z,5.07
2023-03-06T15:36:46.101Z,4.92
2023-03-06T15:40:10.205Z,4.85
2023-03-06T15:43:15.373Z,4.86
2023-03-06T15:46:22.655Z,4.60
2023-03-06T15:49:28.505Z,4.46
2023-03-06T15:52:34.267Z,4.43
2023-03-06T15:55:40.184Z,4.37
2023-03-06T15:58:47.983Z,4.40
2023-03-06T16:01:54.163Z,4.62
2023-03-06T16:05:03.324Z,4.55
2023-03-06T16:08:12.225Z,4.49
2023-03-06T16:11:21.512Z,4.33
2023-03-06T16:14:27.354Z,4.31
2023-03-06T16:17:35.386Z,4.27
2023-03-06T16:20:42.710Z,4.07
2023-03-06T16:23:48.423Z,4.14
2023-03-06T16:26:53.946Z,4.04
2023-03-06T16:30:00.584Z,4.02
2023-03-06T16:33:14.779Z,3.98
2023-03-06T16:36:24.374Z,3.95
2023-03-06T16:39:32.021Z,3.86
2023-03-06T16:42:40.206Z,3.89
2023-03-06T16:45:48.448Z,3.95
2023-03-06T16:48:56.830Z,3.86
2023-03-06T16:52:06.086Z,3.89
2023-03-06T16:55:16.878Z,3.83
2023-03-06T16:58:22.817Z,3.84
2023-03-06T17:01:30.784Z,3.96
2023-03-06T17:04:38.036Z,3.98
2023-03-06T17:07:44.952Z,3.89
2023-03-06T17:10:52.413Z,3.82
2023-03-06T17:14:03.018Z,3.75
2023-03-06T17:17:12.860Z,3.74
2023-03-06T17:20:19.696Z,3.73
2023-03-06T17:23:29.238Z,3.76
2023-03-06T17:26:40.220Z,3.58
2023-03-06T17:29:47.935Z,3.53
2023-03-06T17:32:54.766Z,3.62
2023-03-06T17:36:04.005Z,3.63
2023-03-06T17:39:14.127Z,3.54
2023-03-06T17:42:23.650Z,3.47
2023-03-06T17:45:32.788Z,3.53
2023-03-06T17:48:41.771Z,3.47
2023-03-06T17:51:52.676Z,3.57
2023-03-06T17:55:02.362Z,3.51
2023-03-06T17:58:12.102Z,3.46
2023-03-06T18:01:22.567Z,3.45
2023-03-06T18:04:36.347Z,3.55
2023-03-06T18:07:45.553Z,3.51
2023-03-06T18:10:56.167Z,3.53
2023-03-06T18:14:06.940Z,3.54
2023-03-06T18:17:16.719Z,3.48
2023-03-06T18:20:22.171Z,3.50
2023-03-06T18:23:30.100Z,3.52
2023-03-06T18:26:37.913Z,3.54
2023-03-06T18:29:47.807Z,3.65
2023-03-06T18:32:55.336Z,3.70
2023-03-06T18:36:09.180Z,3.57
2023-03-06T18:39:18.010Z,3.64
2023-03-06T18:42:29.374Z,3.48
2023-03-06T18:45:37.876Z,3.56
2023-03-06T18:48:47.852Z,3.43
2023-03-06T18:51:54.716Z,3.38
2023-03-06T18:55:07.870Z,3.37
2023-03-06T18:58:16.743Z,3.39
2023-03-06T19:01:28.492Z,3.26
2023-03-06T19:04:34.819Z,3.11
2023-03-06T19:07:43.461Z,3.08
2023-03-06T19:10:51.993Z,3.03
2023-03-06T19:14:00.844Z,3.04
2023-03-06T19:17:10.742Z,2.97
2023-03-06T19:20:21.001Z,2.89
2023-03-06T19:23:28.366Z,2.95
2023-03-06T19:26:37.288Z,3.09
2023-03-06T19:29:44.038Z,3.11
2023-03-06T19:32:49.418Z,2.99
2023-03-06T19:35:55.982Z,2.82
2023-03-06T19:39:05.889Z,2.76
2023-03-06T19:42:14.733Z,2.78
2023-03-06T19:45:22.895Z,2.71
2023-03-06T19:48:31.967Z,2.69
2023-03-06T19:51:38.437Z,2.68
2023-03-06T19:54:49.897Z,2.79
2023-03-06T19:57:57.060Z,2.73
2023-03-06T20:01:11.470Z,2.70
2023-03-06T20:04:18.414Z,2.65
2023-03-06T20:07:26.049Z,2.55
2023-03-06T20:10:38.485Z,2.47
2023-03-06T20:13:50.585Z,2.47
2023-03-06T20:16:58.273Z,2.44
2023-03-06T20:20:05.589Z,2.40
2023-03-06T20:23:17.282Z,2.39
2023-03-06T20:26:25.786Z,2.40
2023-03-06T20:29:32.870Z,2.41
2023-03-06T20:32:40.266Z,2.42
2023-03-06T20:35:48.056Z,2.66
2023-03-06T20:38:55.376Z,2.72
2023-03-06T20:42:01.829Z,2.77
2023-03-06T20:45:09.308Z,2.75
2023-03-06T20:48:20.715Z,2.70
2023-03-06T20:51:35.061Z,2.69
2023-03-06T20:54:48.143Z,2.83
2023-03-06T20:57:56.320Z,2.74
2023-03-06T21:01:04.826Z,2.79
2023-03-06T21:04:15.262Z,2.91
2023-03-06T21:07:23.276Z,2.87
2023-03-06T21:10:35.068Z,3.03
2023-03-06T21:13:42.997Z,2.92
2023-03-06T21:16:48.696Z,2.95
2023-03-06T21:19:58.071Z,2.86
2023-03-06T21:23:07.827Z,2.86
2023-03-06T21:26:15.170Z,2.90
2023-03-06T21:29:21.747Z,2.90
2023-03-06T21:32:30.377Z,2.97
2023-03-06T21:35:40.435Z,2.95
2023-03-06T21:38:45.740Z,2.95
2023-03-06T21:41:51.447Z,2.92
2023-03-06T21:44:58.345Z,2.88
2023-03-06T21:48:01.692Z,2.83
2023-03-06T21:51:06.563Z,3.02
2023-03-06T21:54:11.040Z,3.03
2023-03-06T21:57:20.474Z,3.01
2023-03-06T22:00:28.734Z,2.93
2023-03-06T22:03:40.499Z,2.82
2023-03-06T22:06:49.028Z,2.92
2023-03-06T22:09:58.757Z,2.89
2023-03-06T22:13:07.835Z,2.96
2023-03-06T22:16:16.071Z,2.88
2023-03-06T22:19:30.121Z,2.89
2023-03-06T22:22:36.688Z,2.77
2023-03-06T22:25:44.094Z,2.86
2023-03-06T22:28:52.612Z,2.90
2023-03-06T22:31:59.982Z,2.84
2023-03-06T22:35:08.381Z,2.76
2023-03-06T22:38:15.292Z,2.77
2023-03-06T22:41:22.411Z,2.63
2023-03-06T22:44:32.260Z,2.60
2023-03-06T22:47:40.609Z,2.68
2023-03-06T22:50:48.412Z,2.53
2023-03-06T22:53:56.852Z,2.50
2023-03-06T22:57:05.799Z,2.52
2023-03-06T23:00:13.079Z,2.53
2023-03-06T23:03:20.655Z,2.55
2023-03-06T23:06:32.549Z,2.54
2023-03-06T23:09:40.604Z,2.60
2023-03-06T23:13:05.797Z,2.54
2023-03-06T23:16:30.694Z,2.50
2023-03-06T23:19:57.113Z,2.42
2023-03-06T23:23:21.575Z,2.39
2023-03-06T23:26:30.094Z,2.37
2023-03-06T23:29:38.441Z,2.29
2023-03-06T23:32:49.518Z,2.38
2023-03-06T23:36:04.862Z,2.49
2023-03-06T23:39:11.901Z,2.49
2023-03-06T23:42:18.949Z,2.32
2023-03-06T23:45:24.009Z,2.31
2023-03-06T23:48:30.063Z,2.17
2023-03-06T23:51:36.217Z,2.03
2023-03-06T23:54:43.170Z,1.96
2023-03-06T23:57:51.761Z,1.86
